sensor_id;sensor_type;location;lat;lon;timestamp;P1;durP1;ratioP1;P2;durP2;ratioP2
41677;SDS011;27364;49.026;8.712;2022-09-01T00:01:10;11.77;;;9.68;;
41677;SDS011;27364;49.026;8.712;2022-09-01T00:03:42;12.15;;;9.57;;
41677;SDS011;27364;49.026;8.712;2022-09-01T00:06:12;14.43;;;9.43;;
41677;SDS011;27364;49.026;8.712;2022-09-01T00:08:46;10.77;;;9.65;;
41677;SDS011;27364;49.026;8.712;2022-09-01T00:11:19;10.77;;;9.60;;
41677;SDS011;27364;49.026;8.712;2022-09-01T00:13:46;12.70;;;9.40;;
41677;SDS011;27364;49.026;8.712;2022-09-01T00:16:13;10.57;;;9.43;;
41677;SDS011;27364;49.026;8.712;2022-09-01T00:18:40;9.77;;;8.73;;
41677;SDS011;27364;49.026;8.712;2022-09-01T00:21:12;10.65;;;9.48;;
41677;SDS011;27364;49.026;8.712;2022-09-01T00:23:38;11.82;;;9.00;;
41677;SDS011;27364;49.026;8.712;2022-09-01T00:26:03;15.30;;;8.85;;
41677;SDS011;27364;49.026;8.712;2022-09-01T00:28:31;14.13;;;8.95;;
41677;SDS011;27364;49.026;8.712;2022-09-01T00:30:58;13.82;;;8.82;;
41677;SDS011;27364;49.026;8.712;2022-09-01T00:33:23;15.70;;;9.02;;
41677;SDS011;27364;49.026;8.712;2022-09-01T00:35:49;13.23;;;8.95;;
41677;SDS011;27364;49.026;8.712;2022-09-01T00:38:14;9.35;;;8.38;;
41677;SDS011;27364;49.026;8.712;2022-09-01T00:40:40;11.18;;;8.57;;
41677;SDS011;27364;49.026;8.712;2022-09-01T00:46:10;12.65;;;8.35;;
41677;SDS011;27364;49.026;8.712;2022-09-01T00:48:40;10.38;;;8.25;;
41677;SDS011;27364;49.026;8.712;2022-09-01T00:51:07;13.25;;;8.23;;
41677;SDS011;27364;49.026;8.712;2022-09-01T00:53:34;8.70;;;7.75;;
41677;SDS011;27364;49.026;8.712;2022-09-01T00:56:02;11.07;;;8.48;;
41677;SDS011;27364;49.026;8.712;2022-09-01T00:58:29;9.98;;;8.43;;
41677;SDS011;27364;49.026;8.712;2022-09-01T01:00:55;10.40;;;8.45;;
41677;SDS011;27364;49.026;8.712;2022-09-01T01:03:21;10.60;;;8.57;;
41677;SDS011;27364;49.026;8.712;2022-09-01T01:05:52;13.52;;;8.48;;
41677;SDS011;27364;49.026;8.712;2022-09-01T01:08:23;10.00;;;8.40;;
41677;SDS011;27364;49.026;8.712;2022-09-01T01:10:58;9.90;;;8.18;;
41677;SDS011;27364;49.026;8.712;2022-09-01T01:13:28;13.13;;;8.57;;
41677;SDS011;27364;49.026;8.712;2022-09-01T01:15:56;8.73;;;7.82;;
41677;SDS011;27364;49.026;8.712;2022-09-01T01:18:23;9.27;;;8.18;;
41677;SDS011;27364;49.026;8.712;2022-09-01T01:21:00;12.25;;;8.00;;
41677;SDS011;27364;49.026;8.712;2022-09-01T01:26:55;16.50;;;8.40;;
41677;SDS011;27364;49.026;8.712;2022-09-01T01:29:24;12.55;;;8.52;;
41677;SDS011;27364;49.026;8.712;2022-09-01T01:31:53;8.65;;;7.75;;
41677;SDS011;27364;49.026;8.712;2022-09-01T01:34:19;11.77;;;7.78;;
41677;SDS011;27364;49.026;8.712;2022-09-01T01:36:47;9.75;;;8.20;;
41677;SDS011;27364;49.026;8.712;2022-09-01T01:39:15;10.33;;;8.07;;
41677;SDS011;27364;49.026;8.712;2022-09-01T01:41:43;9.20;;;8.07;;
41677;SDS011;27364;49.026;8.712;2022-09-01T01:44:13;10.43;;;7.60;;
41677;SDS011;27364;49.026;8.712;2022-09-01T01:49:08;11.25;;;8.52;;
41677;SDS011;27364;49.026;8.712;2022-09-01T01:51:37;10.38;;;8.10;;
41677;SDS011;27364;49.026;8.712;2022-09-01T01:54:03;13.43;;;8.57;;
41677;SDS011;27364;49.026;8.712;2022-09-01T01:56:29;10.20;;;8.45;;
41677;SDS011;27364;49.026;8.712;2022-09-01T01:58:57;10.85;;;8.40;;
41677;SDS011;27364;49.026;8.712;2022-09-01T02:01:23;12.38;;;9.38;;
41677;SDS011;27364;49.026;8.712;2022-09-01T02:03:52;9.80;;;7.97;;
41677;SDS011;27364;49.026;8.712;2022-09-01T02:06:22;11.15;;;8.50;;
41677;SDS011;27364;49.026;8.712;2022-09-01T02:08:52;12.68;;;7.90;;
41677;SDS011;27364;49.026;8.712;2022-09-01T02:11:25;9.75;;;7.60;;
41677;SDS011;27364;49.026;8.712;2022-09-01T02:13:51;8.82;;;7.25;;
41677;SDS011;27364;49.026;8.712;2022-09-01T02:16:21;9.20;;;7.35;;
41677;SDS011;27364;49.026;8.712;2022-09-01T02:18:48;9.13;;;7.78;;
41677;SDS011;27364;49.026;8.712;2022-09-01T02:21:16;8.88;;;7.63;;
41677;SDS011;27364;49.026;8.712;2022-09-01T02:23:47;10.55;;;7.32;;
41677;SDS011;27364;49.026;8.712;2022-09-01T02:26:19;8.88;;;7.22;;
41677;SDS011;27364;49.026;8.712;2022-09-01T02:31:13;11.65;;;7.78;;
41677;SDS011;27364;49.026;8.712;2022-09-01T02:33:39;11.23;;;8.50;;
41677;SDS011;27364;49.026;8.712;2022-09-01T02:36:10;9.93;;;8.32;;
41677;SDS011;27364;49.026;8.712;2022-09-01T02:38:39;10.07;;;7.70;;
41677;SDS011;27364;49.026;8.712;2022-09-01T02:41:09;9.32;;;7.45;;
41677;SDS011;27364;49.026;8.712;2022-09-01T02:43:36;8.25;;;7.38;;
41677;SDS011;27364;49.026;8.712;2022-09-01T02:46:04;9.00;;;7.77;;
41677;SDS011;27364;49.026;8.712;2022-09-01T02:48:31;10.75;;;7.22;;
41677;SDS011;27364;49.026;8.712;2022-09-01T02:51:00;10.18;;;7.70;;
41677;SDS011;27364;49.026;8.712;2022-09-01T02:53:28;9.32;;;7.40;;
41677;SDS011;27364;49.026;8.712;2022-09-01T02:55:54;9.23;;;7.60;;
41677;SDS011;27364;49.026;8.712;2022-09-01T02:58:22;12.80;;;7.82;;
41677;SDS011;27364;49.026;8.712;2022-09-01T03:00:53;8.95;;;7.90;;
41677;SDS011;27364;49.026;8.712;2022-09-01T03:03:20;9.38;;;7.72;;
41677;SDS011;27364;49.026;8.712;2022-09-01T03:05:46;8.93;;;7.68;;
41677;SDS011;27364;49.026;8.712;2022-09-01T03:08:15;9.20;;;8.05;;
41677;SDS011;27364;49.026;8.712;2022-09-01T03:10:42;11.25;;;7.80;;
41677;SDS011;27364;49.026;8.712;2022-09-01T03:15:44;10.35;;;8.35;;
41677;SDS011;27364;49.026;8.712;2022-09-01T03:18:11;9.88;;;8.13;;
41677;SDS011;27364;49.026;8.712;2022-09-01T03:20:38;9.02;;;8.13;;
41677;SDS011;27364;49.026;8.712;2022-09-01T03:23:11;9.30;;;7.90;;
41677;SDS011;27364;49.026;8.712;2022-09-01T03:25:39;9.93;;;8.02;;
41677;SDS011;27364;49.026;8.712;2022-09-01T03:28:09;8.85;;;7.95;;
41677;SDS011;27364;49.026;8.712;2022-09-01T03:30:37;11.10;;;8.65;;
41677;SDS011;27364;49.026;8.712;2022-09-01T03:33:08;9.55;;;8.55;;
41677;SDS011;27364;49.026;8.712;2022-09-01T03:35:33;10.35;;;8.88;;
41677;SDS011;27364;49.026;8.712;2022-09-01T03:38:00;11.10;;;8.93;;
41677;SDS011;27364;49.026;8.712;2022-09-01T03:40:27;13.90;;;11.05;;
41677;SDS011;27364;49.026;8.712;2022-09-01T03:42:58;16.38;;;10.93;;
41677;SDS011;27364;49.026;8.712;2022-09-01T03:45:24;12.68;;;11.32;;
41677;SDS011;27364;49.026;8.712;2022-09-01T03:47:51;12.10;;;10.90;;
41677;SDS011;27364;49.026;8.712;2022-09-01T03:50:19;14.85;;;11.10;;
41677;SDS011;27364;49.026;8.712;2022-09-01T03:52:50;14.77;;;10.32;;
41677;SDS011;27364;49.026;8.712;2022-09-01T03:55:19;12.45;;;10.10;;
41677;SDS011;27364;49.026;8.712;2022-09-01T03:57:51;15.10;;;10.55;;
41677;SDS011;27364;49.026;8.712;2022-09-01T04:00:18;14.85;;;10.05;;
41677;SDS011;27364;49.026;8.712;2022-09-01T04:02:48;12.15;;;10.85;;
41677;SDS011;27364;49.026;8.712;2022-09-01T04:05:18;11.68;;;10.35;;
41677;SDS011;27364;49.026;8.712;2022-09-01T04:07:46;13.65;;;11.57;;
41677;SDS011;27364;49.026;8.712;2022-09-01T04:10:14;16.45;;;11.50;;
41677;SDS011;27364;49.026;8.712;2022-09-01T04:12:41;15.13;;;11.65;;
41677;SDS011;27364;49.026;8.712;2022-09-01T04:15:08;14.93;;;12.32;;
41677;SDS011;27364;49.026;8.712;2022-09-01T04:17:34;15.88;;;12.35;;
41677;SDS011;27364;49.026;8.712;2022-09-01T04:20:18;13.45;;;11.80;;
41677;SDS011;27364;49.026;8.712;2022-09-01T04:22:45;15.02;;;12.35;;
41677;SDS011;27364;49.026;8.712;2022-09-01T04:25:13;14.23;;;12.85;;
41677;SDS011;27364;49.026;8.712;2022-09-01T04:27:39;17.80;;;13.35;;
41677;SDS011;27364;49.026;8.712;2022-09-01T04:30:06;13.15;;;11.75;;
41677;SDS011;27364;49.026;8.712;2022-09-01T04:32:36;14.63;;;12.32;;
41677;SDS011;27364;49.026;8.712;2022-09-01T04:35:02;14.02;;;12.63;;
41677;SDS011;27364;49.026;8.712;2022-09-01T04:37:29;18.97;;;13.17;;
41677;SDS011;27364;49.026;8.712;2022-09-01T04:39:55;15.07;;;12.60;;
41677;SDS011;27364;49.026;8.712;2022-09-01T04:42:22;13.68;;;12.27;;
41677;SDS011;27364;49.026;8.712;2022-09-01T04:44:53;14.50;;;12.77;;
41677;SDS011;27364;49.026;8.712;2022-09-01T04:47:20;15.52;;;13.38;;
41677;SDS011;27364;49.026;8.712;2022-09-01T04:49:54;16.92;;;12.93;;
41677;SDS011;27364;49.026;8.712;2022-09-01T04:52:24;17.35;;;13.70;;
41677;SDS011;27364;49.026;8.712;2022-09-01T04:54:50;15.27;;;13.45;;
41677;SDS011;27364;49.026;8.712;2022-09-01T04:57:16;14.68;;;12.95;;
41677;SDS011;27364;49.026;8.712;2022-09-01T04:59:42;16.08;;;14.43;;
41677;SDS011;27364;49.026;8.712;2022-09-01T05:02:08;17.02;;;15.27;;
41677;SDS011;27364;49.026;8.712;2022-09-01T05:04:34;16.50;;;14.60;;
41677;SDS011;27364;49.026;8.712;2022-09-01T05:07:01;19.05;;;14.55;;
41677;SDS011;27364;49.026;8.712;2022-09-01T05:09:30;17.38;;;14.77;;
41677;SDS011;27364;49.026;8.712;2022-09-01T05:12:00;18.23;;;14.73;;
41677;SDS011;27364;49.026;8.712;2022-09-01T05:14:35;17.15;;;15.15;;
41677;SDS011;27364;49.026;8.712;2022-09-01T05:17:02;18.48;;;16.05;;
41677;SDS011;27364;49.026;8.712;2022-09-01T05:19:34;17.38;;;15.57;;
41677;SDS011;27364;49.026;8.712;2022-09-01T05:22:09;20.20;;;15.60;;
41677;SDS011;27364;49.026;8.712;2022-09-01T05:24:35;18.65;;;15.88;;
41677;SDS011;27364;49.026;8.712;2022-09-01T05:27:05;17.45;;;15.57;;
41677;SDS011;27364;49.026;8.712;2022-09-01T05:29:31;26.85;;;16.00;;
41677;SDS011;27364;49.026;8.712;2022-09-01T05:31:58;17.55;;;15.05;;
41677;SDS011;27364;49.026;8.712;2022-09-01T05:34:24;18.13;;;16.23;;
41677;SDS011;27364;49.026;8.712;2022-09-01T05:36:52;19.60;;;17.10;;
41677;SDS011;27364;49.026;8.712;2022-09-01T05:39:22;19.45;;;16.45;;
41677;SDS011;27364;49.026;8.712;2022-09-01T05:41:49;19.53;;;17.53;;
41677;SDS011;27364;49.026;8.712;2022-09-01T05:44:15;19.77;;;17.67;;
41677;SDS011;27364;49.026;8.712;2022-09-01T05:46:42;20.00;;;18.00;;
41677;SDS011;27364;49.026;8.712;2022-09-01T05:49:08;20.42;;;18.27;;
41677;SDS011;27364;49.026;8.712;2022-09-01T05:51:38;20.77;;;18.60;;
41677;SDS011;27364;49.026;8.712;2022-09-01T05:54:06;20.90;;;18.65;;
41677;SDS011;27364;49.026;8.712;2022-09-01T05:56:34;21.02;;;18.70;;
41677;SDS011;27364;49.026;8.712;2022-09-01T05:59:02;21.00;;;18.77;;
41677;SDS011;27364;49.026;8.712;2022-09-01T06:01:28;21.23;;;18.98;;
41677;SDS011;27364;49.026;8.712;2022-09-01T06:03:59;21.88;;;19.58;;
41677;SDS011;27364;49.026;8.712;2022-09-01T06:06:28;21.13;;;18.95;;
41677;SDS011;27364;49.026;8.712;2022-09-01T06:08:59;22.00;;;18.98;;
41677;SDS011;27364;49.026;8.712;2022-09-01T06:11:26;21.23;;;19.02;;
41677;SDS011;27364;49.026;8.712;2022-09-01T06:13:56;21.20;;;18.30;;
41677;SDS011;27364;49.026;8.712;2022-09-01T06:16:23;20.63;;;18.55;;
41677;SDS011;27364;49.026;8.712;2022-09-01T06:18:50;23.63;;;18.67;;
41677;SDS011;27364;49.026;8.712;2022-09-01T06:21:17;21.20;;;19.00;;
41677;SDS011;27364;49.026;8.712;2022-09-01T06:23:44;20.30;;;18.20;;
41677;SDS011;27364;49.026;8.712;2022-09-01T06:26:17;21.88;;;18.60;;
41677;SDS011;27364;49.026;8.712;2022-09-01T06:28:48;20.35;;;18.25;;
41677;SDS011;27364;49.026;8.712;2022-09-01T06:31:28;20.90;;;18.20;;
41677;SDS011;27364;49.026;8.712;2022-09-01T06:34:02;24.98;;;18.75;;
41677;SDS011;27364;49.026;8.712;2022-09-01T06:36:29;22.98;;;18.25;;
41677;SDS011;27364;49.026;8.712;2022-09-01T06:38:56;23.97;;;19.93;;
41677;SDS011;27364;49.026;8.712;2022-09-01T06:41:26;22.17;;;19.42;;
41677;SDS011;27364;49.026;8.712;2022-09-01T06:43:52;22.67;;;19.08;;
41677;SDS011;27364;49.026;8.712;2022-09-01T06:46:19;21.10;;;18.58;;
41677;SDS011;27364;49.026;8.712;2022-09-01T06:48:46;21.02;;;17.95;;
41677;SDS011;27364;49.026;8.712;2022-09-01T06:51:13;22.02;;;19.20;;
41677;SDS011;27364;49.026;8.712;2022-09-01T06:53:41;20.40;;;18.25;;
41677;SDS011;27364;49.026;8.712;2022-09-01T06:56:08;22.30;;;17.83;;
41677;SDS011;27364;49.026;8.712;2022-09-01T06:58:38;20.17;;;18.08;;
41677;SDS011;27364;49.026;8.712;2022-09-01T07:01:09;21.33;;;18.02;;
41677;SDS011;27364;49.026;8.712;2022-09-01T07:03:39;20.02;;;17.70;;
41677;SDS011;27364;49.026;8.712;2022-09-01T07:06:05;21.55;;;17.52;;
41677;SDS011;27364;49.026;8.712;2022-09-01T07:08:31;20.20;;;17.00;;
41677;SDS011;27364;49.026;8.712;2022-09-01T07:10:57;21.25;;;17.85;;
41677;SDS011;27364;49.026;8.712;2022-09-01T07:13:23;18.45;;;16.48;;
41677;SDS011;27364;49.026;8.712;2022-09-01T07:15:50;20.10;;;16.80;;
41677;SDS011;27364;49.026;8.712;2022-09-01T07:18:23;19.35;;;17.20;;
41677;SDS011;27364;49.026;8.712;2022-09-01T07:20:51;22.17;;;16.50;;
41677;SDS011;27364;49.026;8.712;2022-09-01T07:23:18;18.17;;;16.23;;
41677;SDS011;27364;49.026;8.712;2022-09-01T07:25:46;17.55;;;15.25;;
41677;SDS011;27364;49.026;8.712;2022-09-01T07:28:13;18.63;;;14.70;;
41677;SDS011;27364;49.026;8.712;2022-09-01T07:30:45;19.52;;;14.48;;
41677;SDS011;27364;49.026;8.712;2022-09-01T07:33:13;19.38;;;13.60;;
41677;SDS011;27364;49.026;8.712;2022-09-01T07:35:40;16.42;;;13.45;;
41677;SDS011;27364;49.026;8.712;2022-09-01T07:38:07;15.77;;;13.18;;
41677;SDS011;27364;49.026;8.712;2022-09-01T07:40:33;15.88;;;12.85;;
41677;SDS011;27364;49.026;8.712;2022-09-01T07:43:02;14.30;;;12.43;;
41677;SDS011;27364;49.026;8.712;2022-09-01T07:45:32;16.13;;;12.02;;
41677;SDS011;27364;49.026;8.712;2022-09-01T07:48:01;15.02;;;11.40;;
41677;SDS011;27364;49.026;8.712;2022-09-01T07:50:31;14.05;;;11.57;;
41677;SDS011;27364;49.026;8.712;2022-09-01T07:53:00;13.15;;;11.85;;
41677;SDS011;27364;49.026;8.712;2022-09-01T07:55:27;13.80;;;10.87;;
41677;SDS011;27364;49.026;8.712;2022-09-01T07:57:53;11.68;;;10.40;;
41677;SDS011;27364;49.026;8.712;2022-09-01T08:00:19;12.60;;;9.65;;
41677;SDS011;27364;49.026;8.712;2022-09-01T08:02:46;11.60;;;10.30;;
41677;SDS011;27364;49.026;8.712;2022-09-01T08:05:13;13.73;;;10.00;;
41677;SDS011;27364;49.026;8.712;2022-09-01T08:07:43;12.15;;;9.95;;
41677;SDS011;27364;49.026;8.712;2022-09-01T08:10:11;11.85;;;9.77;;
41677;SDS011;27364;49.026;8.712;2022-09-01T08:12:36;11.52;;;9.63;;
41677;SDS011;27364;49.026;8.712;2022-09-01T08:15:03;10.38;;;9.27;;
41677;SDS011;27364;49.026;8.712;2022-09-01T08:17:30;10.50;;;9.02;;
41677;SDS011;27364;49.026;8.712;2022-09-01T08:19:56;10.35;;;9.25;;
41677;SDS011;27364;49.026;8.712;2022-09-01T08:22:21;9.52;;;8.52;;
41677;SDS011;27364;49.026;8.712;2022-09-01T08:24:49;11.02;;;8.88;;
41677;SDS011;27364;49.026;8.712;2022-09-01T08:27:15;8.77;;;7.88;;
41677;SDS011;27364;49.026;8.712;2022-09-01T08:29:41;11.63;;;7.93;;
41677;SDS011;27364;49.026;8.712;2022-09-01T08:32:07;9.82;;;8.27;;
41677;SDS011;27364;49.026;8.712;2022-09-01T08:34:33;13.98;;;8.77;;
41677;SDS011;27364;49.026;8.712;2022-09-01T08:36:58;9.55;;;7.80;;
41677;SDS011;27364;49.026;8.712;2022-09-01T08:39:24;10.13;;;7.78;;
41677;SDS011;27364;49.026;8.712;2022-09-01T08:41:57;8.60;;;7.70;;
41677;SDS011;27364;49.026;8.712;2022-09-01T08:44:54;10.93;;;7.60;;
41677;SDS011;27364;49.026;8.712;2022-09-01T08:47:37;9.02;;;8.13;;
41677;SDS011;27364;49.026;8.712;2022-09-01T08:50:03;9.38;;;7.63;;
41677;SDS011;27364;49.026;8.712;2022-09-01T08:52:34;12.27;;;8.65;;
41677;SDS011;27364;49.026;8.712;2022-09-01T08:55:09;12.02;;;9.90;;
41677;SDS011;27364;49.026;8.712;2022-09-01T08:57:42;13.02;;;9.80;;
41677;SDS011;27364;49.026;8.712;2022-09-01T09:00:12;12.93;;;10.00;;
41677;SDS011;27364;49.026;8.712;2022-09-01T09:02:50;11.75;;;9.80;;
41677;SDS011;27364;49.026;8.712;2022-09-01T09:11:03;13.23;;;11.00;;
41677;SDS011;27364;49.026;8.712;2022-09-01T09:19:21;14.40;;;10.23;;
41677;SDS011;27364;49.026;8.712;2022-09-01T09:22:05;11.88;;;7.65;;
41677;SDS011;27364;49.026;8.712;2022-09-01T09:27:15;7.82;;;7.13;;
41677;SDS011;27364;49.026;8.712;2022-09-01T09:29:41;9.55;;;7.65;;
41677;SDS011;27364;49.026;8.712;2022-09-01T09:32:07;8.52;;;7.63;;
41677;SDS011;27364;49.026;8.712;2022-09-01T09:34:41;8.77;;;6.95;;
41677;SDS011;27364;49.026;8.712;2022-09-01T09:42:36;11.98;;;6.65;;
41677;SDS011;27364;49.026;8.712;2022-09-01T09:47:58;9.02;;;6.00;;
41677;SDS011;27364;49.026;8.712;2022-09-01T09:50:29;6.65;;;5.95;;
41677;SDS011;27364;49.026;8.712;2022-09-01T09:53:17;7.78;;;6.05;;
41677;SDS011;27364;49.026;8.712;2022-09-01T09:56:02;7.00;;;6.15;;
41677;SDS011;27364;49.026;8.712;2022-09-01T09:58:37;9.50;;;6.40;;
41677;SDS011;27364;49.026;8.712;2022-09-01T10:01:07;9.95;;;6.30;;
41677;SDS011;27364;49.026;8.712;2022-09-01T10:03:46;15.50;;;6.78;;
41677;SDS011;27364;49.026;8.712;2022-09-01T10:06:28;7.95;;;5.70;;
41677;SDS011;27364;49.026;8.712;2022-09-01T10:09:14;7.28;;;5.47;;
41677;SDS011;27364;49.026;8.712;2022-09-01T10:11:48;6.00;;;5.40;;
41677;SDS011;27364;49.026;8.712;2022-09-01T10:14:21;7.43;;;5.40;;
41677;SDS011;27364;49.026;8.712;2022-09-01T10:16:59;6.43;;;4.85;;
41677;SDS011;27364;49.026;8.712;2022-09-01T10:19:28;6.60;;;5.50;;
41677;SDS011;27364;49.026;8.712;2022-09-01T10:21:57;6.00;;;5.05;;
41677;SDS011;27364;49.026;8.712;2022-09-01T10:26:56;7.15;;;5.43;;
41677;SDS011;27364;49.026;8.712;2022-09-01T10:31:54;6.15;;;5.30;;
41677;SDS011;27364;49.026;8.712;2022-09-01T10:34:20;5.95;;;5.05;;
41677;SDS011;27364;49.026;8.712;2022-09-01T10:36:47;6.80;;;5.35;;
41677;SDS011;27364;49.026;8.712;2022-09-01T10:39:16;8.02;;;5.60;;
41677;SDS011;27364;49.026;8.712;2022-09-01T10:41:55;6.25;;;5.47;;
41677;SDS011;27364;49.026;8.712;2022-09-01T10:44:32;7.40;;;5.88;;
41677;SDS011;27364;49.026;8.712;2022-09-01T10:47:07;6.55;;;5.55;;
41677;SDS011;27364;49.026;8.712;2022-09-01T10:57:59;7.30;;;5.10;;
41677;SDS011;27364;49.026;8.712;2022-09-01T11:00:48;9.52;;;5.22;;
41677;SDS011;27364;49.026;8.712;2022-09-01T11:14:03;8.18;;;5.00;;
41677;SDS011;27364;49.026;8.712;2022-09-01T11:16:41;7.18;;;4.97;;
41677;SDS011;27364;49.026;8.712;2022-09-01T11:20:09;5.35;;;4.70;;
41677;SDS011;27364;49.026;8.712;2022-09-01T11:27:03;5.28;;;4.50;;
41677;SDS011;27364;49.026;8.712;2022-09-01T11:32:22;6.68;;;4.40;;
41677;SDS011;27364;49.026;8.712;2022-09-01T11:34:51;5.45;;;4.25;;
41677;SDS011;27364;49.026;8.712;2022-09-01T11:37:22;5.85;;;4.50;;
41677;SDS011;27364;49.026;8.712;2022-09-01T11:39:50;7.50;;;3.90;;
41677;SDS011;27364;49.026;8.712;2022-09-01T11:45:03;6.05;;;4.13;;
41677;SDS011;27364;49.026;8.712;2022-09-01T11:47:30;4.85;;;3.83;;
41677;SDS011;27364;49.026;8.712;2022-09-01T11:50:23;4.55;;;4.05;;
41677;SDS011;27364;49.026;8.712;2022-09-01T11:52:53;4.55;;;3.70;;
41677;SDS011;27364;49.026;8.712;2022-09-01T11:55:27;7.70;;;3.70;;
41677;SDS011;27364;49.026;8.712;2022-09-01T11:58:10;6.80;;;3.85;;
41677;SDS011;27364;49.026;8.712;2022-09-01T12:00:39;5.40;;;3.80;;
41677;SDS011;27364;49.026;8.712;2022-09-01T12:05:52;5.35;;;3.55;;
41677;SDS011;27364;49.026;8.712;2022-09-01T12:08:26;4.38;;;3.40;;
41677;SDS011;27364;49.026;8.712;2022-09-01T12:11:20;7.03;;;3.83;;
41677;SDS011;27364;49.026;8.712;2022-09-01T12:13:55;7.22;;;3.38;;
41677;SDS011;27364;49.026;8.712;2022-09-01T12:16:24;4.43;;;3.10;;
41677;SDS011;27364;49.026;8.712;2022-09-01T12:18:51;3.92;;;2.90;;
41677;SDS011;27364;49.026;8.712;2022-09-01T12:21:36;3.53;;;2.70;;
41677;SDS011;27364;49.026;8.712;2022-09-01T12:24:23;3.40;;;2.60;;
41677;SDS011;27364;49.026;8.712;2022-09-01T12:26:52;3.83;;;2.88;;
41677;SDS011;27364;49.026;8.712;2022-09-01T12:29:20;3.60;;;2.65;;
41677;SDS011;27364;49.026;8.712;2022-09-01T12:31:47;4.43;;;2.90;;
41677;SDS011;27364;49.026;8.712;2022-09-01T12:37:17;3.88;;;2.80;;
41677;SDS011;27364;49.026;8.712;2022-09-01T12:39:50;5.45;;;2.97;;
41677;SDS011;27364;49.026;8.712;2022-09-01T12:44:51;16.25;;;3.47;;
41677;SDS011;27364;49.026;8.712;2022-09-01T12:49:57;4.10;;;2.90;;
41677;SDS011;27364;49.026;8.712;2022-09-01T12:52:28;5.47;;;2.65;;
41677;SDS011;27364;49.026;8.712;2022-09-01T12:57:29;5.40;;;3.20;;
41677;SDS011;27364;49.026;8.712;2022-09-01T13:02:37;4.70;;;3.20;;
41677;SDS011;27364;49.026;8.712;2022-09-01T13:05:22;3.85;;;2.80;;
41677;SDS011;27364;49.026;8.712;2022-09-01T13:13:41;4.07;;;2.83;;
41677;SDS011;27364;49.026;8.712;2022-09-01T13:16:06;7.60;;;2.80;;
41677;SDS011;27364;49.026;8.712;2022-09-01T13:18:36;5.88;;;3.20;;
41677;SDS011;27364;49.026;8.712;2022-09-01T13:21:04;3.60;;;3.10;;
41677;SDS011;27364;49.026;8.712;2022-09-01T13:23:30;4.70;;;3.43;;
41677;SDS011;27364;49.026;8.712;2022-09-01T13:25:56;5.95;;;3.13;;
41677;SDS011;27364;49.026;8.712;2022-09-01T13:28:23;5.47;;;2.80;;
41677;SDS011;27364;49.026;8.712;2022-09-01T13:30:51;3.90;;;2.73;;
41677;SDS011;27364;49.026;8.712;2022-09-01T13:33:20;5.22;;;2.60;;
41677;SDS011;27364;49.026;8.712;2022-09-01T13:35:47;4.05;;;2.80;;
41677;SDS011;27364;49.026;8.712;2022-09-01T13:38:13;4.15;;;2.80;;
41677;SDS011;27364;49.026;8.712;2022-09-01T13:40:40;5.63;;;3.15;;
41677;SDS011;27364;49.026;8.712;2022-09-01T13:43:07;5.22;;;2.88;;
41677;SDS011;27364;49.026;8.712;2022-09-01T13:45:33;4.30;;;2.90;;
41677;SDS011;27364;49.026;8.712;2022-09-01T13:47:58;16.35;;;3.35;;
41677;SDS011;27364;49.026;8.712;2022-09-01T13:50:24;3.75;;;2.80;;
41677;SDS011;27364;49.026;8.712;2022-09-01T13:52:52;6.90;;;2.90;;
41677;SDS011;27364;49.026;8.712;2022-09-01T13:55:21;6.20;;;3.03;;
41677;SDS011;27364;49.026;8.712;2022-09-01T13:57:49;4.25;;;2.90;;
41677;SDS011;27364;49.026;8.712;2022-09-01T14:00:16;3.53;;;2.80;;
41677;SDS011;27364;49.026;8.712;2022-09-01T14:02:44;3.63;;;2.92;;
41677;SDS011;27364;49.026;8.712;2022-09-01T14:05:18;5.32;;;3.20;;
41677;SDS011;27364;49.026;8.712;2022-09-01T14:07:49;4.05;;;3.10;;
41677;SDS011;27364;49.026;8.712;2022-09-01T14:12:42;3.93;;;2.90;;
41677;SDS011;27364;49.026;8.712;2022-09-01T14:15:10;4.10;;;2.80;;
41677;SDS011;27364;49.026;8.712;2022-09-01T14:17:38;3.90;;;3.10;;
41677;SDS011;27364;49.026;8.712;2022-09-01T14:20:06;3.83;;;3.00;;
41677;SDS011;27364;49.026;8.712;2022-09-01T14:22:36;11.60;;;3.60;;
41677;SDS011;27364;49.026;8.712;2022-09-01T14:27:30;5.13;;;3.33;;
41677;SDS011;27364;49.026;8.712;2022-09-01T14:29:56;4.10;;;3.05;;
41677;SDS011;27364;49.026;8.712;2022-09-01T14:32:21;7.80;;;3.08;;
41677;SDS011;27364;49.026;8.712;2022-09-01T14:34:49;5.07;;;3.60;;
41677;SDS011;27364;49.026;8.712;2022-09-01T14:37:14;5.40;;;3.13;;
41677;SDS011;27364;49.026;8.712;2022-09-01T14:39:41;6.00;;;3.10;;
41677;SDS011;27364;49.026;8.712;2022-09-01T14:42:07;4.20;;;3.10;;
41677;SDS011;27364;49.026;8.712;2022-09-01T14:44:39;5.70;;;2.78;;
41677;SDS011;27364;49.026;8.712;2022-09-01T14:47:04;5.68;;;2.72;;
41677;SDS011;27364;49.026;8.712;2022-09-01T14:49:31;6.03;;;2.83;;
41677;SDS011;27364;49.026;8.712;2022-09-01T14:52:00;19.88;;;3.20;;
41677;SDS011;27364;49.026;8.712;2022-09-01T14:54:32;14.05;;;3.10;;
41677;SDS011;27364;49.026;8.712;2022-09-01T14:57:00;15.55;;;3.30;;
41677;SDS011;27364;49.026;8.712;2022-09-01T14:59:27;8.25;;;2.70;;
41677;SDS011;27364;49.026;8.712;2022-09-01T15:01:52;5.72;;;2.50;;
41677;SDS011;27364;49.026;8.712;2022-09-01T15:04:18;3.63;;;2.72;;
41677;SDS011;27364;49.026;8.712;2022-09-01T15:06:45;3.40;;;2.40;;
41677;SDS011;27364;49.026;8.712;2022-09-01T15:09:10;4.40;;;2.80;;
41677;SDS011;27364;49.026;8.712;2022-09-01T15:11:36;5.30;;;3.20;;
41677;SDS011;27364;49.026;8.712;2022-09-01T15:14:03;5.78;;;2.90;;
41677;SDS011;27364;49.026;8.712;2022-09-01T15:16:28;6.30;;;2.80;;
41677;SDS011;27364;49.026;8.712;2022-09-01T15:18:54;4.35;;;2.72;;
41677;SDS011;27364;49.026;8.712;2022-09-01T15:23:46;5.10;;;3.10;;
41677;SDS011;27364;49.026;8.712;2022-09-01T15:26:13;3.85;;;2.60;;
41677;SDS011;27364;49.026;8.712;2022-09-01T15:28:41;4.13;;;2.90;;
41677;SDS011;27364;49.026;8.712;2022-09-01T15:31:11;3.92;;;2.78;;
41677;SDS011;27364;49.026;8.712;2022-09-01T15:33:38;5.47;;;2.53;;
41677;SDS011;27364;49.026;8.712;2022-09-01T15:36:05;4.18;;;2.90;;
41677;SDS011;27364;49.026;8.712;2022-09-01T15:38:33;3.63;;;2.80;;
41677;SDS011;27364;49.026;8.712;2022-09-01T15:40:59;10.70;;;3.20;;
41677;SDS011;27364;49.026;8.712;2022-09-01T15:43:28;4.35;;;3.33;;
41677;SDS011;27364;49.026;8.712;2022-09-01T15:45:54;6.90;;;5.00;;
41677;SDS011;27364;49.026;8.712;2022-09-01T15:48:23;8.82;;;6.25;;
41677;SDS011;27364;49.026;8.712;2022-09-01T15:53:17;5.32;;;3.67;;
41677;SDS011;27364;49.026;8.712;2022-09-01T15:55:44;5.38;;;3.75;;
41677;SDS011;27364;49.026;8.712;2022-09-01T15:58:13;4.05;;;3.53;;
41677;SDS011;27364;49.026;8.712;2022-09-01T16:00:40;8.07;;;3.50;;
41677;SDS011;27364;49.026;8.712;2022-09-01T16:05:34;4.35;;;2.70;;
41677;SDS011;27364;49.026;8.712;2022-09-01T16:08:02;6.90;;;2.53;;
41677;SDS011;27364;49.026;8.712;2022-09-01T16:10:33;4.05;;;2.58;;
41677;SDS011;27364;49.026;8.712;2022-09-01T16:13:00;2.80;;;2.30;;
41677;SDS011;27364;49.026;8.712;2022-09-01T16:15:26;4.15;;;2.60;;
41677;SDS011;27364;49.026;8.712;2022-09-01T16:20:34;6.03;;;2.83;;
41677;SDS011;27364;49.026;8.712;2022-09-01T16:23:21;3.30;;;2.40;;
41677;SDS011;27364;49.026;8.712;2022-09-01T16:25:50;3.63;;;2.42;;
41677;SDS011;27364;49.026;8.712;2022-09-01T16:30:43;3.20;;;2.30;;
41677;SDS011;27364;49.026;8.712;2022-09-01T16:33:11;4.75;;;2.15;;
41677;SDS011;27364;49.026;8.712;2022-09-01T16:35:50;3.03;;;2.50;;
41677;SDS011;27364;49.026;8.712;2022-09-01T16:44:13;6.85;;;2.78;;